createdAt,value
2018-04-12T07:48:21.124Z,55.17
2018-04-12T07:50:53.832Z,50.85
2018-04-12T07:53:23.229Z,51.92
2018-04-12T07:55:52.300Z,49.75
2018-04-12T07:58:22.247Z,48.13
2018-04-12T08:00:51.493Z,51.60
2018-04-12T08:03:20.562Z,44.97
2018-04-12T08:05:50.577Z,49.00
2018-04-12T08:08:25.084Z,48.42
2018-04-12T08:10:54.388Z,46.78
2018-04-12T08:13:24.402Z,45.03
2018-04-12T08:15:54.637Z,43.55
2018-04-12T08:18:23.896Z,43.38
2018-04-12T08:20:53.391Z,42.10
2018-04-12T08:23:23.429Z,46.08
2018-04-12T08:25:52.495Z,47.95
2018-04-12T08:28:21.596Z,48.05
2018-04-12T08:30:50.704Z,47.97
2018-04-12T08:33:19.880Z,46.45
2018-04-12T08:35:49.170Z,46.60
2018-04-12T08:38:18.331Z,44.40
2018-04-12T08:40:47.446Z,43.85
2018-04-12T08:43:17.578Z,45.85
2018-04-12T08:45:48.950Z,44.92
2018-04-12T08:48:18.206Z,45.97
2018-04-12T08:50:48.103Z,45.90
2018-04-12T08:53:17.282Z,48.13
2018-04-12T08:55:46.564Z,50.17
2018-04-12T08:58:16.414Z,58.85
2018-04-12T09:00:46.419Z,49.72
2018-04-12T09:03:15.669Z,43.55
2018-04-12T09:05:46.216Z,50.60
2018-04-12T09:08:15.388Z,44.97
2018-04-12T09:10:44.722Z,46.05
2018-04-12T09:13:13.875Z,43.90
2018-04-12T09:15:43.808Z,42.72
2018-04-12T09:18:14.928Z,41.97
2018-04-12T09:20:45.785Z,52.45
2018-04-12T09:23:17.231Z,45.03
2018-04-12T09:25:47.124Z,41.70
2018-04-12T09:28:16.351Z,45.03
2018-04-12T09:30:46.311Z,44.72
2018-04-12T09:33:16.286Z,48.00
2018-04-12T09:35:46.363Z,48.20
2018-04-12T09:38:18.027Z,46.22
2018-04-12T09:40:47.131Z,47.33
2018-04-12T09:43:17.109Z,47.53
2018-04-12T09:45:46.291Z,50.33
2018-04-12T09:48:15.982Z,48.72
2018-04-12T09:50:45.382Z,46.60
2018-04-12T09:53:19.788Z,47.58
2018-04-12T09:55:49.780Z,54.17
2018-04-12T09:58:20.090Z,47.92
2018-04-12T10:00:53.763Z,50.53
2018-04-12T10:03:23.437Z,51.97
2018-04-12T10:05:57.707Z,55.72
2018-04-12T10:08:28.179Z,53.38
2018-04-12T10:10:58.193Z,55.38
2018-04-12T10:13:28.083Z,61.67
2018-04-12T10:15:57.450Z,60.53
2018-04-12T10:18:27.969Z,53.60
2018-04-12T10:20:59.429Z,54.78
2018-04-12T10:23:30.916Z,55.95
2018-04-12T10:26:01.175Z,55.30
2018-04-12T10:28:30.924Z,57.35
2018-04-12T10:31:02.049Z,53.75
2018-04-12T10:33:31.173Z,52.75
2018-04-12T10:36:00.522Z,54.53
2018-04-12T10:38:32.732Z,58.97
2018-04-12T10:41:05.174Z,51.93
2018-04-12T10:43:36.723Z,52.67
2018-04-12T10:46:10.013Z,49.23
2018-04-12T10:48:40.195Z,47.63
2018-04-12T10:51:10.099Z,52.17
2018-04-12T10:53:39.556Z,52.30
2018-04-12T10:56:09.685Z,46.83
2018-04-12T10:58:41.090Z,52.63
2018-04-12T11:01:10.502Z,49.40
2018-04-12T11:03:39.805Z,47.17
2018-04-12T11:06:10.096Z,51.80
2018-04-12T11:11:15.299Z,48.47
2018-04-12T11:13:45.487Z,52.53
2018-04-12T11:16:14.765Z,47.57
2018-04-12T11:18:50.670Z,58.07
2018-04-12T11:21:19.983Z,52.47
2018-04-12T11:23:49.516Z,52.33
2018-04-12T11:26:19.530Z,53.33
2018-04-12T11:28:48.789Z,52.60
2018-04-12T11:31:18.210Z,49.63
2018-04-12T11:33:49.290Z,48.83
2018-04-12T11:36:23.524Z,48.40
2018-04-12T11:38:59.694Z,53.07
2018-04-12T11:41:28.928Z,54.23
2018-04-12T11:44:07.740Z,51.37
2018-04-12T11:46:37.760Z,54.63
2018-04-12T11:49:11.684Z,49.80
2018-04-12T11:51:41.638Z,48.75
2018-04-12T11:54:11.361Z,43.13
2018-04-12T11:56:40.673Z,44.37
2018-04-12T11:59:10.710Z,50.10
2018-04-12T12:01:39.982Z,48.45
2018-04-12T12:04:09.229Z,41.23
2018-04-12T12:06:39.269Z,42.22
2018-04-12T12:09:09.249Z,44.97
2018-04-12T12:11:43.506Z,45.53
2018-04-12T12:14:12.749Z,38.00
2018-04-12T12:16:42.728Z,38.87
2018-04-12T12:19:12.956Z,41.17
2018-04-12T12:21:42.859Z,47.90
2018-04-12T13:07:54.241Z,32.95
2018-04-12T13:10:24.916Z,34.88
2018-04-12T13:12:55.754Z,34.25
2018-04-12T13:15:25.901Z,35.97
2018-04-12T13:17:55.414Z,37.95
2018-04-12T13:20:29.996Z,42.90
2018-04-12T13:23:00.157Z,42.35
2018-04-12T13:25:31.904Z,39.30
2018-04-12T13:28:10.486Z,39.50
2018-04-12T13:30:39.767Z,37.70
2018-04-12T13:33:11.098Z,40.30
2018-04-12T13:35:45.786Z,39.73
2018-04-12T13:38:15.198Z,42.13
2018-04-12T13:40:44.572Z,39.47
2018-04-12T13:43:16.223Z,38.17
2018-04-12T13:45:46.300Z,37.53
2018-04-12T13:48:19.235Z,39.23
2018-04-12T13:50:49.489Z,38.33
2018-04-12T13:53:19.371Z,39.08
2018-04-12T13:55:48.624Z,38.47
2018-04-12T13:58:18.775Z,39.35
2018-04-12T14:00:48.699Z,38.42
2018-04-12T14:03:23.090Z,37.90
2018-04-12T14:05:53.044Z,36.22
2018-04-12T14:08:23.470Z,36.30
2018-04-12T14:10:53.789Z,36.28
2018-04-12T14:16:55.129Z,35.08
2018-04-12T14:19:24.536Z,35.42
2018-04-12T14:21:53.812Z,35.00
2018-04-12T14:24:23.329Z,37.17
2018-04-12T14:26:52.672Z,32.95
2018-04-12T14:29:21.972Z,31.40
2018-04-12T14:31:51.978Z,27.55
2018-04-12T14:34:21.400Z,27.62
2018-04-12T14:36:51.780Z,26.77
2018-04-12T14:39:22.455Z,28.20
2018-04-12T14:41:51.901Z,27.45
2018-04-12T14:44:21.172Z,29.17
2018-04-12T14:46:51.804Z,26.15
2018-04-12T14:49:20.984Z,26.25
2018-04-12T14:51:51.190Z,25.40
2018-04-12T14:54:21.102Z,29.25
2018-04-12T14:56:51.218Z,26.83
2018-04-12T14:59:21.362Z,24.60
2018-04-12T15:01:50.906Z,23.48
2018-04-12T15:04:21.963Z,23.38
2018-04-12T15:06:51.341Z,27.73
2018-04-12T15:09:20.850Z,20.25
2018-04-12T15:11:51.199Z,20.27
2018-04-12T15:14:21.265Z,19.62
2018-04-12T15:16:50.826Z,21.12
2018-04-12T15:21:56.928Z,21.95
2018-04-12T15:24:27.017Z,19.02
2018-04-12T15:26:56.271Z,19.60
2018-04-12T15:29:25.733Z,18.17
2018-04-12T15:31:56.752Z,21.00
2018-04-12T15:34:26.211Z,18.80
2018-04-12T15:36:55.464Z,21.15
2018-04-12T15:39:24.702Z,20.05
2018-04-12T15:44:28.267Z,24.23
2018-04-12T15:46:57.745Z,19.23
2018-04-12T15:49:27.051Z,17.37
2018-04-12T15:51:56.428Z,18.52
2018-04-12T15:54:25.859Z,19.15
2018-04-12T15:57:00.247Z,21.77
2018-04-12T15:59:30.443Z,19.23
2018-04-12T16:02:01.326Z,16.48
2018-04-12T16:04:30.810Z,19.00
2018-04-12T16:07:00.314Z,17.77
2018-04-12T16:09:29.963Z,18.92
2018-04-12T16:12:01.813Z,18.37
2018-04-12T16:14:31.166Z,17.75
2018-04-12T16:19:40.339Z,15.73
2018-04-12T16:22:11.175Z,17.52
2018-04-12T16:24:40.376Z,16.23
2018-04-12T16:27:11.374Z,18.15
2018-04-12T16:29:42.749Z,15.60
2018-04-12T16:32:12.786Z,18.98
2018-04-12T16:34:42.078Z,24.30
2018-04-12T16:37:15.902Z,18.12
2018-04-12T16:39:45.419Z,19.15
2018-04-12T16:42:18.942Z,16.27
2018-04-12T16:44:48.305Z,17.70
2018-04-12T16:47:17.428Z,17.75
2018-04-12T16:49:46.730Z,15.93
2018-04-12T16:52:16.290Z,19.75
2018-04-12T16:54:48.928Z,15.75
2018-04-12T16:57:27.197Z,16.37
2018-04-12T16:59:56.469Z,14.82
2018-04-12T17:02:25.660Z,14.98
2018-04-12T17:04:54.896Z,18.80
2018-04-12T17:07:24.852Z,20.40
2018-04-12T17:09:54.145Z,16.95
2018-04-12T17:12:28.780Z,17.08
2018-04-12T17:14:58.348Z,15.18
2018-04-12T17:17:27.780Z,20.95
2018-04-12T17:19:57.403Z,14.80
2018-04-12T17:22:27.663Z,17.85
2018-04-12T17:24:56.908Z,17.08
2018-04-12T17:27:26.105Z,16.17
2018-04-12T17:29:55.642Z,19.05
2018-04-12T17:32:29.002Z,15.50
2018-04-12T17:34:58.264Z,16.42
2018-04-12T17:37:28.084Z,15.80
2018-04-12T17:39:57.647Z,15.07
2018-04-12T17:42:27.765Z,14.00
2018-04-12T17:44:58.098Z,15.27
2018-04-12T17:47:27.444Z,18.52
2018-04-12T17:49:56.550Z,15.30
2018-04-12T17:52:31.499Z,16.35
2018-04-12T17:55:06.207Z,20.02
2018-04-12T17:57:35.609Z,17.50
2018-04-12T18:00:05.928Z,18.95
2018-04-12T18:02:35.285Z,18.27
2018-04-12T18:05:06.120Z,15.20
2018-04-12T18:07:38.953Z,14.87
2018-04-12T18:10:10.043Z,15.07
2018-04-12T18:12:39.398Z,17.45
2018-04-12T18:15:18.211Z,15.57
2018-04-12T18:32:35.475Z,17.27
